Tropical Cyclones
[Index]
Main Index Home Page Stock Weather Photos Extreme Storms Discussion Storm News and Storm Chasing Reports Tropical Cyclones / Hurricanes / Typhoons Weather Data and Links Wild Fires / Bushfires Weather Observation Techniques Weather Picture Catalogue Tornado Pictures and Reports Stock Video Footage and DVDs for sale
Season 1955-1956 Tropical Cyclone 195625 Track Map
Season 1955-1956 Summaries: [BoM-AU] [JTWC-AU] [JTWC-SIO] [JTWC-SPAC] [JTWC-SH]
<<- Previous TC | JTWC 1955-1956 Season | Next TC ->>

click for intensity scale information  Lat/long Grid: Show Hide

 Date Labels: Show Hide

Joint Typhoon Warning Centre Cyclone Data

Name: 195625
Number: 267 / 5625

02 Mar 1956 12:00 UTC to 11 Mar 1956 00:00 UTC

    date/time    lat    long     hPa   cat  kts
1956-03-02 12   18.0   170.7                              
1956-03-02 18   18.0   171.2                              
1956-03-03 00   18.1   171.6                              
1956-03-03 06   18.1   171.8                              
1956-03-03 12   18.2   172.0                              
1956-03-03 18   18.3   172.3                              
1956-03-04 00   18.3   172.5                              
1956-03-04 06   18.3   172.6                              
1956-03-04 12   18.3   172.7                              
1956-03-04 18   18.3   172.9                              
1956-03-05 00   18.3   173.3                              
1956-03-05 06   18.2   174.0                              
1956-03-05 12   18.1   174.8                              
1956-03-05 18   17.9   175.5                              
1956-03-06 00   17.8   176.2                              
1956-03-06 06   19.1   176.8                              
1956-03-06 12   21.0   177.1                              
1956-03-06 18   22.4   176.9                              
1956-03-07 00   23.5   176.7                              
1956-03-07 06   24.2   177.0                              
1956-03-07 12   25.0   177.4                              
1956-03-07 18   25.7   177.7                              
1956-03-08 00   26.5   177.8                              
1956-03-08 06   27.7   176.6                              
1956-03-08 12   29.0   175.0                              
1956-03-08 18   29.9   173.8                              
1956-03-09 00   30.8   173.0                              
1956-03-09 06   31.8   172.9                              
1956-03-09 12   32.8   173.1                              
1956-03-09 18   33.5   173.2                              
1956-03-10 00   34.4   174.0                              
1956-03-10 06   36.1   175.7                              
1956-03-10 12   38.0   177.5                              
1956-03-10 18   39.6   179.2                              
1956-03-11 00   41.2   179.0W                             
Winds are 1-min average.

Tropical cyclone tracks developed by Michael Bath using data from the Joint Typhoon Warning Centre Best Tracks and Google Maps.


[Australian Severe Weather index] [Copyright Notice] [Email Contacts] [Search This Site] [Privacy Policy]
Document: tropical_cyclone_195625.htm Updated: 18 September 2016